^^
Daily Summary for May 11, 2021 Units:  Both    English   Metric
Daily Weekly Monthly Yearly Custom
  High: Low: Average:
Temperature: 91.0 °F /  32.8 °C 58.0 °F /  14.4 °C 71.7 °F /  22.1 °C
Dew Point: 44.0 °F /  6.7 °C 25.0 °F /  -3.9 °C 35.1 °F /  1.7 °C
Humidity: 50% 12% 28%
Wind Speed: 16mph /  25.7km/h - 2.1mph /  3.4km/h
Wind Gust: 16mph /  25.7km/h - -
Wind- - SSE
Pressure: 30.0 in /  1015.8 hPa 29.9 in /  1012.4 hPa -
Precipitation: 0.000 in /  0 mm    
Historical Graphs
 
 
Tabular Data for May 11, 2021
Time Temperature Dew Point Pressure Wind Wind Speed Wind Gust Humidity Rainfall Rate (Hourly) solar
00:04 60.0 °F /  15.6 °C 41.0 °F /  5 °C 29.9in /  1012.4hPa Calm     49% 0.000in /  0mm 0.00 W/m2
00:09 60.0 °F /  15.6 °C 40.0 °F /  4.4 °C 29.9in /  1012.4hPa Calm     48% 0.000in /  0mm 0.00 W/m2
00:14 60.0 °F /  15.6 °C 39.0 °F /  3.9 °C 29.9in /  1012.4hPa Calm     47% 0.000in /  0mm 0.00 W/m2
00:19 60.0 °F /  15.6 °C 39.0 °F /  3.9 °C 29.9in /  1012.4hPa Calm     47% 0.000in /  0mm 0.00 W/m2
00:24 59.0 °F /  15 °C 40.0 °F /  4.4 °C 29.9in /  1012.4hPa Calm     48% 0.000in /  0mm 0.00 W/m2
00:29 59.0 °F /  15 °C 39.0 °F /  3.9 °C 29.9in /  1012.4hPa Calm     47% 0.000in /  0mm 0.00 W/m2
00:34 59.0 °F /  15 °C 39.0 °F /  3.9 °C 29.9in /  1012.4hPa Calm     47% 0.000in /  0mm 0.00 W/m2
00:39 59.0 °F /  15 °C 40.0 °F /  4.4 °C 29.9in /  1012.4hPa Calm     50% 0.000in /  0mm 0.00 W/m2
00:44 59.0 °F /  15 °C 40.0 °F /  4.4 °C 29.9in /  1012.4hPa Calm     50% 0.000in /  0mm 0.00 W/m2
00:49 59.0 °F /  15 °C 39.0 °F /  3.9 °C 29.9in /  1012.4hPa Calm     47% 0.000in /  0mm 0.00 W/m2
00:54 59.0 °F /  15 °C 36.0 °F /  2.2 °C 29.9in /  1012.4hPa Calm     43% 0.000in /  0mm 0.00 W/m2
00:59 58.0 °F /  14.4 °C 35.0 °F /  1.7 °C 29.9in /  1012.4hPa Calm     41% 0.000in /  0mm 0.00 W/m2
01:04 58.0 °F /  14.4 °C 34.0 °F /  1.1 °C 29.9in /  1012.4hPa Calm     40% 0.000in /  0mm 0.00 W/m2
01:09 58.0 °F /  14.4 °C 35.0 °F /  1.7 °C 29.9in /  1012.4hPa Calm     42% 0.000in /  0mm 0.00 W/m2
01:14 59.0 °F /  15 °C 34.0 °F /  1.1 °C 29.9in /  1012.4hPa Calm     39% 0.000in /  0mm 0.00 W/m2
01:19 59.0 °F /  15 °C 34.0 °F /  1.1 °C 29.9in /  1012.4hPa Calm     39% 0.000in /  0mm 0.00 W/m2
01:24 59.0 °F /  15 °C 33.0 °F /  0.6 °C 29.9in /  1012.4hPa Calm     38% 0.000in /  0mm 0.00 W/m2
01:29 59.0 °F /  15 °C 33.0 °F /  0.6 °C 29.9in /  1012.4hPa SE 2mph /  3.2km/h   37% 0.000in /  0mm 0.00 W/m2
01:34 59.0 °F /  15 °C 31.0 °F /  -0.6 °C 29.9in /  1012.4hPa SE 2mph /  3.2km/h 2mph /  3.2km/h 34% 0.000in /  0mm 0.00 W/m2
01:39 59.0 °F /  15 °C 32.0 °F /  0 °C 29.9in /  1012.4hPa SE 2mph /  3.2km/h 2mph /  3.2km/h 36% 0.000in /  0mm 0.00 W/m2
01:44 60.0 °F /  15.6 °C 32.0 °F /  0 °C 29.9in /  1012.4hPa SE 2mph /  3.2km/h 2mph /  3.2km/h 35% 0.000in /  0mm 0.00 W/m2
01:49 60.0 °F /  15.6 °C 31.0 °F /  -0.6 °C 29.9in /  1012.4hPa SE 2mph /  3.2km/h 2mph /  3.2km/h 34% 0.000in /  0mm 0.00 W/m2
01:54 60.0 °F /  15.6 °C 29.0 °F /  -1.7 °C 29.9in /  1012.4hPa SE 2mph /  3.2km/h   30% 0.000in /  0mm 0.00 W/m2
01:59 61.0 °F /  16.1 °C 29.0 °F /  -1.7 °C 29.9in /  1012.4hPa Calm   2mph /  3.2km/h 30% 0.000in /  0mm 0.00 W/m2
02:04 61.0 °F /  16.1 °C 31.0 °F /  -0.6 °C 29.9in /  1012.4hPa SE 2mph /  3.2km/h   32% 0.000in /  0mm 0.00 W/m2
02:09 61.0 °F /  16.1 °C 33.0 °F /  0.6 °C 29.9in /  1012.4hPa SE 2mph /  3.2km/h 2mph /  3.2km/h 35% 0.000in /  0mm 0.00 W/m2
02:14 61.0 °F /  16.1 °C 30.0 °F /  -1.1 °C 29.9in /  1012.4hPa Calm     31% 0.000in /  0mm 0.00 W/m2
02:19 61.0 °F /  16.1 °C 29.0 °F /  -1.7 °C 29.9in /  1012.4hPa Calm     29% 0.000in /  0mm 0.00 W/m2
02:24 62.0 °F /  16.7 °C 31.0 °F /  -0.6 °C 29.9in /  1012.4hPa Calm     32% 0.000in /  0mm 0.00 W/m2
02:29 62.0 °F /  16.7 °C 31.0 °F /  -0.6 °C 29.9in /  1012.4hPa NNE 2mph /  3.2km/h   31% 0.000in /  0mm 0.00 W/m2
02:33 62.0 °F /  16.7 °C 29.0 °F /  -1.7 °C 29.9in /  1012.4hPa NNE 2mph /  3.2km/h 2mph /  3.2km/h 29% 0.000in /  0mm 0.00 W/m2
02:39 62.0 °F /  16.7 °C 28.0 °F /  -2.2 °C 29.9in /  1012.4hPa Calm   2mph /  3.2km/h 28% 0.000in /  0mm 0.00 W/m2
02:44 62.0 °F /  16.7 °C 29.0 °F /  -1.7 °C 29.9in /  1012.4hPa Calm     29% 0.000in /  0mm 0.00 W/m2
02:49 62.0 °F /  16.7 °C 29.0 °F /  -1.7 °C 29.9in /  1012.4hPa NNE 2mph /  3.2km/h   29% 0.000in /  0mm 0.00 W/m2
02:54 62.0 °F /  16.7 °C 31.0 °F /  -0.6 °C 29.9in /  1012.4hPa Calm   2mph /  3.2km/h 31% 0.000in /  0mm 0.00 W/m2
02:59 62.0 °F /  16.7 °C 30.0 °F /  -1.1 °C 29.9in /  1012.4hPa Calm     30% 0.000in /  0mm 0.00 W/m2
03:04 62.0 °F /  16.7 °C 30.0 °F /  -1.1 °C 29.9in /  1012.4hPa Calm     30% 0.000in /  0mm 0.00 W/m2
03:09 62.0 °F /  16.7 °C 30.0 °F /  -1.1 °C 29.9in /  1012.4hPa Calm     30% 0.000in /  0mm 0.00 W/m2
03:14 61.0 °F /  16.1 °C 30.0 °F /  -1.1 °C 29.9in /  1012.4hPa Calm     31% 0.000in /  0mm 0.00 W/m2
03:19 61.0 °F /  16.1 °C 30.0 °F /  -1.1 °C 29.9in /  1012.4hPa Calm     31% 0.000in /  0mm 0.00 W/m2
03:24 61.0 °F /  16.1 °C 29.0 °F /  -1.7 °C 29.9in /  1012.4hPa Calm     30% 0.000in /  0mm 0.00 W/m2
03:29 61.0 °F /  16.1 °C 31.0 °F /  -0.6 °C 29.9in /  1012.4hPa Calm     32% 0.000in /  0mm 0.00 W/m2
03:34 61.0 °F /  16.1 °C 31.0 °F /  -0.6 °C 29.9in /  1012.4hPa Calm     32% 0.000in /  0mm 0.00 W/m2
03:39 60.0 °F /  15.6 °C 30.0 °F /  -1.1 °C 29.9in /  1012.4hPa Calm     32% 0.000in /  0mm 0.00 W/m2
03:44 60.0 °F /  15.6 °C 30.0 °F /  -1.1 °C 29.9in /  1012.4hPa Calm     32% 0.000in /  0mm 0.00 W/m2
03:49 60.0 °F /  15.6 °C 30.0 °F /  -1.1 °C 29.9in /  1012.4hPa Calm     32% 0.000in /  0mm 0.00 W/m2
03:54 60.0 °F /  15.6 °C 30.0 °F /  -1.1 °C 29.9in /  1012.4hPa Calm     32% 0.000in /  0mm 0.00 W/m2
03:59 59.0 °F /  15 °C 30.0 °F /  -1.1 °C 29.9in /  1012.4hPa Calm     32% 0.000in /  0mm 0.00 W/m2
04:04 59.0 °F /  15 °C 29.0 °F /  -1.7 °C 29.9in /  1012.4hPa NNE 2mph /  3.2km/h 2mph /  3.2km/h 31% 0.000in /  0mm 0.00 W/m2
04:09 59.0 °F /  15 °C 28.0 °F /  -2.2 °C 29.9in /  1012.4hPa NNE 2mph /  3.2km/h   31% 0.000in /  0mm 0.00 W/m2
04:14 59.0 °F /  15 °C 28.0 °F /  -2.2 °C 29.9in /  1012.4hPa NNE 2mph /  3.2km/h 2mph /  3.2km/h 31% 0.000in /  0mm 0.00 W/m2
04:19 59.0 °F /  15 °C 28.0 °F /  -2.2 °C 29.9in /  1012.4hPa Calm     31% 0.000in /  0mm 0.00 W/m2
04:24 59.0 °F /  15 °C 28.0 °F /  -2.2 °C 29.9in /  1012.4hPa Calm     31% 0.000in /  0mm 0.00 W/m2
04:29 59.0 °F /  15 °C 29.0 °F /  -1.7 °C 29.9in /  1012.4hPa NNE 2mph /  3.2km/h   32% 0.000in /  0mm 0.00 W/m2
04:34 59.0 °F /  15 °C 29.0 °F /  -1.7 °C 29.9in /  1012.4hPa Calm   2mph /  3.2km/h 32% 0.000in /  0mm 0.00 W/m2
04:39 59.0 °F /  15 °C 29.0 °F /  -1.7 °C 29.9in /  1012.4hPa Calm     32% 0.000in /  0mm 0.00 W/m2
04:44 59.0 °F /  15 °C 29.0 °F /  -1.7 °C 29.9in /  1012.4hPa ENE 2mph /  3.2km/h   32% 0.000in /  0mm 0.00 W/m2
04:49 59.0 °F /  15 °C 29.0 °F /  -1.7 °C 29.9in /  1012.4hPa ENE 2mph /  3.2km/h 2mph /  3.2km/h 32% 0.000in /  0mm 0.00 W/m2
04:54 59.0 °F /  15 °C 29.0 °F /  -1.7 °C 29.9in /  1012.4hPa Calm     32% 0.000in /  0mm 0.00 W/m2
04:59 59.0 °F /  15 °C 27.0 °F /  -2.8 °C 29.9in /  1012.4hPa NE 2mph /  3.2km/h 1mph /  1.6km/h 29% 0.000in /  0mm 0.00 W/m2
05:04 59.0 °F /  15 °C 27.0 °F /  -2.8 °C 29.9in /  1012.4hPa Calm   2mph /  3.2km/h 29% 0.000in /  0mm 0.00 W/m2
05:09 59.0 °F /  15 °C 27.0 °F /  -2.8 °C 29.9in /  1012.4hPa ENE 4mph /  6.4km/h   29% 0.000in /  0mm 0.00 W/m2
05:14 60.0 °F /  15.6 °C 26.0 °F /  -3.3 °C 29.9in /  1012.4hPa ENE 4mph /  6.4km/h 3mph /  4.8km/h 28% 0.000in /  0mm 0.00 W/m2
05:19 60.0 °F /  15.6 °C 26.0 °F /  -3.3 °C 29.9in /  1012.4hPa Calm   3mph /  4.8km/h 27% 0.000in /  0mm 0.00 W/m2
05:24 60.0 °F /  15.6 °C 25.0 °F /  -3.9 °C 29.9in /  1012.4hPa ENE 2mph /  3.2km/h   26% 0.000in /  0mm 0.00 W/m2
05:29 60.0 °F /  15.6 °C 26.0 °F /  -3.3 °C 29.9in /  1012.4hPa Calm   2mph /  3.2km/h 27% 0.000in /  0mm 0.00 W/m2
05:33 60.0 °F /  15.6 °C 27.0 °F /  -2.8 °C 29.9in /  1012.4hPa Calm     28% 0.000in /  0mm 0.00 W/m2
05:39 60.0 °F /  15.6 °C 27.0 °F /  -2.8 °C 29.9in /  1012.4hPa Calm     28% 0.000in /  0mm 0.00 W/m2
05:44 60.0 °F /  15.6 °C 29.0 °F /  -1.7 °C 29.9in /  1012.4hPa Calm     30% 0.000in /  0mm 0.00 W/m2
05:49 60.0 °F /  15.6 °C 28.0 °F /  -2.2 °C 29.9in /  1012.4hPa Calm     29% 0.000in /  0mm 0.00 W/m2
05:54 60.0 °F /  15.6 °C 29.0 °F /  -1.7 °C 29.9in /  1012.4hPa Calm     30% 0.000in /  0mm 0.00 W/m2
05:59 60.0 °F /  15.6 °C 29.0 °F /  -1.7 °C 29.9in /  1012.4hPa Calm     30% 0.000in /  0mm 0.00 W/m2
06:04 60.0 °F /  15.6 °C 28.0 °F /  -2.2 °C 29.9in /  1012.4hPa ENE 2mph /  3.2km/h   29% 0.000in /  0mm 5.00 W/m2
06:09 60.0 °F /  15.6 °C 28.0 °F /  -2.2 °C 29.9in /  1012.4hPa Calm   2mph /  3.2km/h 30% 0.000in /  0mm 5.00 W/m2
06:14 60.0 °F /  15.6 °C 27.0 °F /  -2.8 °C 29.9in /  1012.4hPa NE 2mph /  3.2km/h 1mph /  1.6km/h 28% 0.000in /  0mm 7.00 W/m2
06:19 60.0 °F /  15.6 °C 27.0 °F /  -2.8 °C 29.9in /  1012.4hPa ENE 2mph /  3.2km/h 2mph /  3.2km/h 29% 0.000in /  0mm 9.00 W/m2
06:24 60.0 °F /  15.6 °C 26.0 °F /  -3.3 °C 29.9in /  1012.4hPa ENE 2mph /  3.2km/h   28% 0.000in /  0mm 11.00 W/m2
06:29 60.0 °F /  15.6 °C 28.0 °F /  -2.2 °C 29.9in /  1012.4hPa Calm   2mph /  3.2km/h 30% 0.000in /  0mm 11.00 W/m2
06:34 60.0 °F /  15.6 °C 29.0 °F /  -1.7 °C 29.9in /  1012.4hPa ENE 2mph /  3.2km/h   31% 0.000in /  0mm 12.00 W/m2
06:39 59.0 °F /  15 °C 29.0 °F /  -1.7 °C 29.9in /  1012.4hPa NE 2mph /  3.2km/h 2mph /  3.2km/h 31% 0.000in /  0mm 14.00 W/m2
06:44 59.0 °F /  15 °C 29.0 °F /  -1.7 °C 29.9in /  1012.4hPa Calm   2mph /  3.2km/h 31% 0.000in /  0mm 14.00 W/m2
06:49 59.0 °F /  15 °C 29.0 °F /  -1.7 °C 29.9in /  1012.4hPa Calm     32% 0.000in /  0mm 16.00 W/m2
06:54 59.0 °F /  15 °C 29.0 °F /  -1.7 °C 29.9in /  1012.4hPa NE 4mph /  6.4km/h 1mph /  1.6km/h 32% 0.000in /  0mm 18.00 W/m2
06:59 59.0 °F /  15 °C 29.0 °F /  -1.7 °C 29.9in /  1012.4hPa NE 2mph /  3.2km/h 3mph /  4.8km/h 32% 0.000in /  0mm 18.00 W/m2
07:04 59.0 °F /  15 °C 31.0 °F /  -0.6 °C 29.9in /  1012.4hPa NE 2mph /  3.2km/h 2mph /  3.2km/h 35% 0.000in /  0mm 19.00 W/m2
07:09 59.0 °F /  15 °C 31.0 °F /  -0.6 °C 29.9in /  1012.4hPa Calm   2mph /  3.2km/h 35% 0.000in /  0mm 19.00 W/m2
07:14 59.0 °F /  15 °C 32.0 °F /  0 °C 30.0in /  1015.8hPa Calm     36% 0.000in /  0mm 21.00 W/m2
07:19 59.0 °F /  15 °C 32.0 °F /  0 °C 30.0in /  1015.8hPa Calm     36% 0.000in /  0mm 23.00 W/m2
07:24 59.0 °F /  15 °C 32.0 °F /  0 °C 30.0in /  1015.8hPa Calm     36% 0.000in /  0mm 23.00 W/m2
07:29 59.0 °F /  15 °C 33.0 °F /  0.6 °C 30.0in /  1015.8hPa Calm     38% 0.000in /  0mm 25.00 W/m2
07:34 59.0 °F /  15 °C 33.0 °F /  0.6 °C 30.0in /  1015.8hPa Calm     38% 0.000in /  0mm 26.00 W/m2
07:39 59.0 °F /  15 °C 34.0 °F /  1.1 °C 30.0in /  1015.8hPa Calm     39% 0.000in /  0mm 28.00 W/m2
07:44 59.0 °F /  15 °C 35.0 °F /  1.7 °C 30.0in /  1015.8hPa Calm     41% 0.000in /  0mm 30.00 W/m2
07:49 59.0 °F /  15 °C 36.0 °F /  2.2 °C 30.0in /  1015.8hPa Calm     42% 0.000in /  0mm 33.00 W/m2
07:54 59.0 °F /  15 °C 36.0 °F /  2.2 °C 30.0in /  1015.8hPa Calm     43% 0.000in /  0mm 39.00 W/m2
07:59 59.0 °F /  15 °C 38.0 °F /  3.3 °C 30.0in /  1015.8hPa Calm     45% 0.000in /  0mm 74.00 W/m2
08:04 59.0 °F /  15 °C 38.0 °F /  3.3 °C 30.0in /  1015.8hPa Calm     45% 0.000in /  0mm 100.00 W/m2
08:09 59.0 °F /  15 °C 38.0 °F /  3.3 °C 30.0in /  1015.8hPa Calm     45% 0.000in /  0mm 267.00 W/m2
08:14 60.0 °F /  15.6 °C 39.0 °F /  3.9 °C 30.0in /  1015.8hPa Calm     46% 0.000in /  0mm 438.00 W/m2
08:19 60.0 °F /  15.6 °C 39.0 °F /  3.9 °C 30.0in /  1015.8hPa Calm     46% 0.000in /  0mm 452.00 W/m2
08:24 61.0 °F /  16.1 °C 41.0 °F /  5 °C 30.0in /  1015.8hPa Calm     48% 0.000in /  0mm 476.00 W/m2
08:29 62.0 °F /  16.7 °C 42.0 °F /  5.6 °C 30.0in /  1015.8hPa Calm     48% 0.000in /  0mm 490.00 W/m2
08:34 62.0 °F /  16.7 °C 43.0 °F /  6.1 °C 30.0in /  1015.8hPa Calm     50% 0.000in /  0mm 508.00 W/m2
08:39 63.0 °F /  17.2 °C 44.0 °F /  6.7 °C 30.0in /  1015.8hPa Calm     50% 0.000in /  0mm 527.00 W/m2
08:43 64.0 °F /  17.8 °C 43.0 °F /  6.1 °C 30.0in /  1015.8hPa Calm     47% 0.000in /  0mm 538.00 W/m2
08:49 66.0 °F /  18.9 °C 43.0 °F /  6.1 °C 30.0in /  1015.8hPa Calm     44% 0.000in /  0mm 561.00 W/m2
08:54 67.0 °F /  19.4 °C 42.0 °F /  5.6 °C 30.0in /  1015.8hPa Calm     41% 0.000in /  0mm 580.00 W/m2
08:59 68.0 °F /  20 °C 42.0 °F /  5.6 °C 30.0in /  1015.8hPa NE 2mph /  3.2km/h   40% 0.000in /  0mm 594.00 W/m2
09:04 69.0 °F /  20.6 °C 43.0 °F /  6.1 °C 30.0in /  1015.8hPa Calm   2mph /  3.2km/h 38% 0.000in /  0mm 615.00 W/m2
09:09 70.0 °F /  21.1 °C 43.0 °F /  6.1 °C 30.0in /  1015.8hPa Calm     38% 0.000in /  0mm 629.00 W/m2
09:14 71.0 °F /  21.7 °C 41.0 °F /  5 °C 30.0in /  1015.8hPa Calm     35% 0.000in /  0mm 645.00 W/m2
09:19 72.0 °F /  22.2 °C 37.0 °F /  2.8 °C 30.0in /  1015.8hPa Calm     29% 0.000in /  0mm 659.00 W/m2
09:24 73.0 °F /  22.8 °C 35.0 °F /  1.7 °C 30.0in /  1015.8hPa Calm     26% 0.000in /  0mm 675.00 W/m2
09:29 74.0 °F /  23.3 °C 35.0 °F /  1.7 °C 30.0in /  1015.8hPa Calm     25% 0.000in /  0mm 687.00 W/m2
09:34 74.0 °F /  23.3 °C 39.0 °F /  3.9 °C 30.0in /  1015.8hPa NE 2mph /  3.2km/h   28% 0.000in /  0mm 705.00 W/m2
09:39 75.0 °F /  23.9 °C 38.0 °F /  3.3 °C 30.0in /  1015.8hPa SE 6mph /  9.7km/h 2mph /  3.2km/h 27% 0.000in /  0mm 717.00 W/m2
09:44 76.0 °F /  24.4 °C 36.0 °F /  2.2 °C 30.0in /  1015.8hPa SE 4mph /  6.4km/h 6mph /  9.7km/h 24% 0.000in /  0mm 731.00 W/m2
09:49 76.0 °F /  24.4 °C 36.0 °F /  2.2 °C 30.0in /  1015.8hPa SSE 2mph /  3.2km/h 2mph /  3.2km/h 23% 0.000in /  0mm 744.00 W/m2
09:54 77.0 °F /  25 °C 38.0 °F /  3.3 °C 30.0in /  1015.8hPa SE 2mph /  3.2km/h 2mph /  3.2km/h 25% 0.000in /  0mm 756.00 W/m2
09:59 77.0 °F /  25 °C 37.0 °F /  2.8 °C 30.0in /  1015.8hPa SSE 2mph /  3.2km/h 2mph /  3.2km/h 24% 0.000in /  0mm 770.00 W/m2
10:04 77.0 °F /  25 °C 38.0 °F /  3.3 °C 30.0in /  1015.8hPa SE 4mph /  6.4km/h 2mph /  3.2km/h 24% 0.000in /  0mm 789.00 W/m2
10:09 78.0 °F /  25.6 °C 36.0 °F /  2.2 °C 30.0in /  1015.8hPa South 4mph /  6.4km/h 3mph /  4.8km/h 22% 0.000in /  0mm 796.00 W/m2
10:14 78.0 °F /  25.6 °C 36.0 °F /  2.2 °C 30.0in /  1015.8hPa SSW 2mph /  3.2km/h 2mph /  3.2km/h 22% 0.000in /  0mm 803.00 W/m2
10:19 78.0 °F /  25.6 °C 38.0 °F /  3.3 °C 30.0in /  1015.8hPa SSE 7mph /  11.3km/h 5mph /  8km/h 24% 0.000in /  0mm 793.00 W/m2
10:24 78.0 °F /  25.6 °C 37.0 °F /  2.8 °C 30.0in /  1015.8hPa SSE 7mph /  11.3km/h 7mph /  11.3km/h 23% 0.000in /  0mm 830.00 W/m2
10:29 78.0 °F /  25.6 °C 40.0 °F /  4.4 °C 30.0in /  1015.8hPa SSW 4mph /  6.4km/h 3mph /  4.8km/h 25% 0.000in /  0mm 842.00 W/m2
10:34 79.0 °F /  26.1 °C 40.0 °F /  4.4 °C 30.0in /  1015.8hPa SSE 6mph /  9.7km/h 3mph /  4.8km/h 25% 0.000in /  0mm 853.00 W/m2
10:39 79.0 °F /  26.1 °C 36.0 °F /  2.2 °C 30.0in /  1015.8hPa SSW 2mph /  3.2km/h 6mph /  9.7km/h 21% 0.000in /  0mm 865.00 W/m2
10:44 79.0 °F /  26.1 °C 37.0 °F /  2.8 °C 30.0in /  1015.8hPa South 7mph /  11.3km/h 4mph /  6.4km/h 22% 0.000in /  0mm 874.00 W/m2
10:49 79.0 °F /  26.1 °C 36.0 °F /  2.2 °C 30.0in /  1015.8hPa SSW 6mph /  9.7km/h 7mph /  11.3km/h 21% 0.000in /  0mm 884.00 W/m2
10:54 79.0 °F /  26.1 °C 36.0 °F /  2.2 °C 30.0in /  1015.8hPa South 2mph /  3.2km/h 6mph /  9.7km/h 21% 0.000in /  0mm 889.00 W/m2
10:59 79.0 °F /  26.1 °C 39.0 °F /  3.9 °C 30.0in /  1015.8hPa SW 4mph /  6.4km/h 3mph /  4.8km/h 24% 0.000in /  0mm 900.00 W/m2
11:04 80.0 °F /  26.7 °C 39.0 °F /  3.9 °C 30.0in /  1015.8hPa SSW 4mph /  6.4km/h 3mph /  4.8km/h 24% 0.000in /  0mm 909.00 W/m2
11:09 80.0 °F /  26.7 °C 39.0 °F /  3.9 °C 30.0in /  1015.8hPa SSE 9mph /  14.5km/h 3mph /  4.8km/h 23% 0.000in /  0mm 916.00 W/m2
11:14 80.0 °F /  26.7 °C 39.0 °F /  3.9 °C 30.0in /  1015.8hPa South 4mph /  6.4km/h 9mph /  14.5km/h 23% 0.000in /  0mm 925.00 W/m2
11:19 80.0 °F /  26.7 °C 39.0 °F /  3.9 °C 30.0in /  1015.8hPa SSE 2mph /  3.2km/h 3mph /  4.8km/h 23% 0.000in /  0mm 930.00 W/m2
11:23 81.0 °F /  27.2 °C 38.0 °F /  3.3 °C 30.0in /  1015.8hPa SSW 7mph /  11.3km/h 5mph /  8km/h 22% 0.000in /  0mm 937.00 W/m2
11:29 81.0 °F /  27.2 °C 37.0 °F /  2.8 °C 30.0in /  1015.8hPa South 4mph /  6.4km/h 7mph /  11.3km/h 21% 0.000in /  0mm 946.00 W/m2
11:34 81.0 °F /  27.2 °C 36.0 °F /  2.2 °C 30.0in /  1015.8hPa SSW 2mph /  3.2km/h 3mph /  4.8km/h 20% 0.000in /  0mm 947.00 W/m2
11:39 82.0 °F /  27.8 °C 38.0 °F /  3.3 °C 30.0in /  1015.8hPa SE 2mph /  3.2km/h 2mph /  3.2km/h 21% 0.000in /  0mm 953.00 W/m2
11:44 82.0 °F /  27.8 °C 39.0 °F /  3.9 °C 30.0in /  1015.8hPa SSW 7mph /  11.3km/h 5mph /  8km/h 22% 0.000in /  0mm 963.00 W/m2
11:49 82.0 °F /  27.8 °C 39.0 °F /  3.9 °C 30.0in /  1015.8hPa SSW 2mph /  3.2km/h 7mph /  11.3km/h 22% 0.000in /  0mm 967.00 W/m2
11:54 82.0 °F /  27.8 °C 41.0 °F /  5 °C 30.0in /  1015.8hPa SSE 2mph /  3.2km/h 2mph /  3.2km/h 23% 0.000in /  0mm 972.00 W/m2
11:59 83.0 °F /  28.3 °C 40.0 °F /  4.4 °C 30.0in /  1015.8hPa SSE 7mph /  11.3km/h 4mph /  6.4km/h 22% 0.000in /  0mm 976.00 W/m2
12:04 83.0 °F /  28.3 °C 38.0 °F /  3.3 °C 30.0in /  1015.8hPa SSE 7mph /  11.3km/h 7mph /  11.3km/h 20% 0.000in /  0mm 979.00 W/m2
12:09 83.0 °F /  28.3 °C 40.0 °F /  4.4 °C 30.0in /  1015.8hPa SSW 2mph /  3.2km/h 7mph /  11.3km/h 22% 0.000in /  0mm 984.00 W/m2
12:14 83.0 °F /  28.3 °C 40.0 °F /  4.4 °C 30.0in /  1015.8hPa SSW 2mph /  3.2km/h 2mph /  3.2km/h 22% 0.000in /  0mm 986.00 W/m2
12:19 83.0 °F /  28.3 °C 39.0 °F /  3.9 °C 30.0in /  1015.8hPa NE 13mph /  20.9km/h 10mph /  16.1km/h 21% 0.000in /  0mm 988.00 W/m2
12:24 84.0 °F /  28.9 °C 39.0 °F /  3.9 °C 30.0in /  1015.8hPa South 9mph /  14.5km/h 13mph /  20.9km/h 21% 0.000in /  0mm 986.00 W/m2
12:29 84.0 °F /  28.9 °C 40.0 °F /  4.4 °C 30.0in /  1015.8hPa Calm   9mph /  14.5km/h 21% 0.000in /  0mm 991.00 W/m2
12:34 85.0 °F /  29.4 °C 40.0 °F /  4.4 °C 30.0in /  1015.8hPa SW 6mph /  9.7km/h 3mph /  4.8km/h 21% 0.000in /  0mm 991.00 W/m2
12:39 85.0 °F /  29.4 °C 38.0 °F /  3.3 °C 30.0in /  1015.8hPa NW 2mph /  3.2km/h 6mph /  9.7km/h 19% 0.000in /  0mm 993.00 W/m2
12:44 85.0 °F /  29.4 °C 38.0 °F /  3.3 °C 30.0in /  1015.8hPa SW 7mph /  11.3km/h 6mph /  9.7km/h 19% 0.000in /  0mm 995.00 W/m2
12:49 85.0 °F /  29.4 °C 40.0 °F /  4.4 °C 30.0in /  1015.8hPa ESE 4mph /  6.4km/h 7mph /  11.3km/h 20% 0.000in /  0mm 997.00 W/m2
12:54 86.0 °F /  30 °C 39.0 °F /  3.9 °C 30.0in /  1015.8hPa South 7mph /  11.3km/h 7mph /  11.3km/h 19% 0.000in /  0mm 995.00 W/m2
12:59 86.0 °F /  30 °C 39.0 °F /  3.9 °C 30.0in /  1015.8hPa SSW 4mph /  6.4km/h 3mph /  4.8km/h 19% 0.000in /  0mm 993.00 W/m2
13:04 86.0 °F /  30 °C 39.0 °F /  3.9 °C 30.0in /  1015.8hPa South 4mph /  6.4km/h 3mph /  4.8km/h 19% 0.000in /  0mm 990.00 W/m2
13:08 86.0 °F /  30 °C 38.0 °F /  3.3 °C 30.0in /  1015.8hPa SE 11mph /  17.7km/h 7mph /  11.3km/h 18% 0.000in /  0mm 988.00 W/m2
13:14 86.0 °F /  30 °C 38.0 °F /  3.3 °C 30.0in /  1015.8hPa South 7mph /  11.3km/h 10mph /  16.1km/h 18% 0.000in /  0mm 986.00 W/m2
13:19 87.0 °F /  30.6 °C 37.0 °F /  2.8 °C 30.0in /  1015.8hPa South 5mph /  8km/h 3mph /  4.8km/h 17% 0.000in /  0mm 983.00 W/m2
13:24 87.0 °F /  30.6 °C 39.0 °F /  3.9 °C 30.0in /  1015.8hPa SSE 6mph /  9.7km/h 6mph /  9.7km/h 19% 0.000in /  0mm 979.00 W/m2
13:29 87.0 °F /  30.6 °C 39.0 °F /  3.9 °C 30.0in /  1015.8hPa South 7mph /  11.3km/h 7mph /  11.3km/h 19% 0.000in /  0mm 979.00 W/m2
13:34 87.0 °F /  30.6 °C 38.0 °F /  3.3 °C 30.0in /  1015.8hPa SSE 9mph /  14.5km/h 6mph /  9.7km/h 18% 0.000in /  0mm 974.00 W/m2
13:39 87.0 °F /  30.6 °C 41.0 °F /  5 °C 29.9in /  1012.4hPa SSE 2mph /  3.2km/h 9mph /  14.5km/h 20% 0.000in /  0mm 970.00 W/m2
13:44 88.0 °F /  31.1 °C 41.0 °F /  5 °C 29.9in /  1012.4hPa South 13mph /  20.9km/h 8mph /  12.9km/h 20% 0.000in /  0mm 969.00 W/m2
13:49 88.0 °F /  31.1 °C 36.0 °F /  2.2 °C 30.0in /  1015.8hPa SSE 7mph /  11.3km/h 13mph /  20.9km/h 16% 0.000in /  0mm 967.00 W/m2
13:54 88.0 °F /  31.1 °C 37.0 °F /  2.8 °C 29.9in /  1012.4hPa North 6mph /  9.7km/h 6mph /  9.7km/h 17% 0.000in /  0mm 958.00 W/m2
13:59 88.0 °F /  31.1 °C 39.0 °F /  3.9 °C 30.0in /  1015.8hPa SW 7mph /  11.3km/h 4mph /  6.4km/h 18% 0.000in /  0mm 951.00 W/m2
14:04 88.0 °F /  31.1 °C 36.0 °F /  2.2 °C 30.0in /  1015.8hPa ENE 7mph /  11.3km/h 7mph /  11.3km/h 16% 0.000in /  0mm 947.00 W/m2
14:09 88.0 °F /  31.1 °C 39.0 °F /  3.9 °C 29.9in /  1012.4hPa East 7mph /  11.3km/h 5mph /  8km/h 18% 0.000in /  0mm 939.00 W/m2
14:14 89.0 °F /  31.7 °C 40.0 °F /  4.4 °C 29.9in /  1012.4hPa ESE 6mph /  9.7km/h 7mph /  11.3km/h 18% 0.000in /  0mm 932.00 W/m2
14:19 89.0 °F /  31.7 °C 37.0 °F /  2.8 °C 29.9in /  1012.4hPa South 11mph /  17.7km/h 10mph /  16.1km/h 16% 0.000in /  0mm 925.00 W/m2
14:24 89.0 °F /  31.7 °C 37.0 °F /  2.8 °C 29.9in /  1012.4hPa ENE 2mph /  3.2km/h 10mph /  16.1km/h 16% 0.000in /  0mm 916.00 W/m2
14:29 90.0 °F /  32.2 °C 37.0 °F /  2.8 °C 29.9in /  1012.4hPa SE 2mph /  3.2km/h 2mph /  3.2km/h 16% 0.000in /  0mm 909.00 W/m2
14:34 90.0 °F /  32.2 °C 38.0 °F /  3.3 °C 29.9in /  1012.4hPa SW 7mph /  11.3km/h 3mph /  4.8km/h 16% 0.000in /  0mm 898.00 W/m2
14:39 90.0 °F /  32.2 °C 36.0 °F /  2.2 °C 29.9in /  1012.4hPa South 6mph /  9.7km/h 7mph /  11.3km/h 15% 0.000in /  0mm 889.00 W/m2
14:44 90.0 °F /  32.2 °C 34.0 °F /  1.1 °C 29.9in /  1012.4hPa SSE 11mph /  17.7km/h 7mph /  11.3km/h 14% 0.000in /  0mm 882.00 W/m2
14:49 90.0 °F /  32.2 °C 36.0 °F /  2.2 °C 29.9in /  1012.4hPa South 10mph /  16.1km/h 10mph /  16.1km/h 15% 0.000in /  0mm 870.00 W/m2
14:54 90.0 °F /  32.2 °C 38.0 °F /  3.3 °C 29.9in /  1012.4hPa SSW 6mph /  9.7km/h 3mph /  4.8km/h 16% 0.000in /  0mm 856.00 W/m2
14:59 90.0 °F /  32.2 °C 36.0 °F /  2.2 °C 29.9in /  1012.4hPa WSW 6mph /  9.7km/h 6mph /  9.7km/h 15% 0.000in /  0mm 853.00 W/m2
15:04 90.0 °F /  32.2 °C 38.0 °F /  3.3 °C 29.9in /  1012.4hPa SSE 6mph /  9.7km/h 6mph /  9.7km/h 16% 0.000in /  0mm 837.00 W/m2
15:09 91.0 °F /  32.8 °C 37.0 °F /  2.8 °C 29.9in /  1012.4hPa NNE 4mph /  6.4km/h 6mph /  9.7km/h 15% 0.000in /  0mm 826.00 W/m2
15:14 91.0 °F /  32.8 °C 37.0 °F /  2.8 °C 29.9in /  1012.4hPa South 16mph /  25.7km/h 11mph /  17.7km/h 15% 0.000in /  0mm 817.00 W/m2
15:19 91.0 °F /  32.8 °C 37.0 °F /  2.8 °C 29.9in /  1012.4hPa South 16mph /  25.7km/h 16mph /  25.7km/h 15% 0.000in /  0mm 807.00 W/m2
15:24 91.0 °F /  32.8 °C 37.0 °F /  2.8 °C 29.9in /  1012.4hPa SE 4mph /  6.4km/h 7mph /  11.3km/h 15% 0.000in /  0mm 796.00 W/m2
15:29 91.0 °F /  32.8 °C 35.0 °F /  1.7 °C 29.9in /  1012.4hPa SSW 6mph /  9.7km/h 4mph /  6.4km/h 14% 0.000in /  0mm 784.00 W/m2
15:34 91.0 °F /  32.8 °C 40.0 °F /  4.4 °C 29.9in /  1012.4hPa SSE 6mph /  9.7km/h 6mph /  9.7km/h 17% 0.000in /  0mm 768.00 W/m2
15:39 91.0 °F /  32.8 °C 38.0 °F /  3.3 °C 29.9in /  1012.4hPa South 4mph /  6.4km/h 3mph /  4.8km/h 16% 0.000in /  0mm 758.00 W/m2
15:44 91.0 °F /  32.8 °C 39.0 °F /  3.9 °C 29.9in /  1012.4hPa South 6mph /  9.7km/h 3mph /  4.8km/h 16% 0.000in /  0mm 747.00 W/m2
15:49 91.0 °F /  32.8 °C 33.0 °F /  0.6 °C 29.9in /  1012.4hPa SW 6mph /  9.7km/h 6mph /  9.7km/h 13% 0.000in /  0mm 745.00 W/m2
15:54 91.0 °F /  32.8 °C 31.0 °F /  -0.6 °C 29.9in /  1012.4hPa SSW 4mph /  6.4km/h 6mph /  9.7km/h 12% 0.000in /  0mm 721.00 W/m2
15:59 91.0 °F /  32.8 °C 35.0 °F /  1.7 °C 29.9in /  1012.4hPa SW 5mph /  8km/h 4mph /  6.4km/h 14% 0.000in /  0mm 705.00 W/m2
16:04 91.0 °F /  32.8 °C 33.0 °F /  0.6 °C 29.9in /  1012.4hPa WSW 6mph /  9.7km/h 6mph /  9.7km/h 13% 0.000in /  0mm 691.00 W/m2
16:19 91.0 °F /  32.8 °C 33.0 °F /  0.6 °C 29.9in /  1012.4hPa SSW 4mph /  6.4km/h 2mph /  3.2km/h 13% 0.000in /  0mm 647.00 W/m2
16:24 91.0 °F /  32.8 °C 33.0 °F /  0.6 °C 29.9in /  1012.4hPa SSW 2mph /  3.2km/h 3mph /  4.8km/h 13% 0.000in /  0mm 631.00 W/m2
16:29 91.0 °F /  32.8 °C 37.0 °F /  2.8 °C 29.9in /  1012.4hPa ESE 2mph /  3.2km/h 2mph /  3.2km/h 15% 0.000in /  0mm 615.00 W/m2
17:19 91.0 °F /  32.8 °C 33.0 °F /  0.6 °C 29.9in /  1012.4hPa South 2mph /  3.2km/h   13% 0.000in /  0mm 441.00 W/m2
17:24 90.0 °F /  32.2 °C 35.0 °F /  1.7 °C 29.9in /  1012.4hPa SW 4mph /  6.4km/h 2mph /  3.2km/h 14% 0.000in /  0mm 436.00 W/m2
17:29 90.0 °F /  32.2 °C 34.0 °F /  1.1 °C 29.9in /  1012.4hPa SSE 7mph /  11.3km/h 7mph /  11.3km/h 14% 0.000in /  0mm 422.00 W/m2
17:34 90.0 °F /  32.2 °C 34.0 °F /  1.1 °C 29.9in /  1012.4hPa South 4mph /  6.4km/h 6mph /  9.7km/h 14% 0.000in /  0mm 401.00 W/m2
17:39 90.0 °F /  32.2 °C 32.0 °F /  0 °C 29.9in /  1012.4hPa South 2mph /  3.2km/h 2mph /  3.2km/h 13% 0.000in /  0mm 385.00 W/m2
17:44 89.0 °F /  31.7 °C 34.0 °F /  1.1 °C 29.9in /  1012.4hPa South 4mph /  6.4km/h 2mph /  3.2km/h 14% 0.000in /  0mm 334.00 W/m2
17:49 89.0 °F /  31.7 °C 37.0 °F /  2.8 °C 29.9in /  1012.4hPa East 2mph /  3.2km/h 3mph /  4.8km/h 16% 0.000in /  0mm 65.00 W/m2
17:54 88.0 °F /  31.1 °C 33.0 °F /  0.6 °C 29.9in /  1012.4hPa SSE 4mph /  6.4km/h 2mph /  3.2km/h 14% 0.000in /  0mm 54.00 W/m2
17:59 88.0 °F /  31.1 °C 36.0 °F /  2.2 °C 29.9in /  1012.4hPa SSE 4mph /  6.4km/h 3mph /  4.8km/h 16% 0.000in /  0mm 51.00 W/m2
18:04 87.0 °F /  30.6 °C 34.0 °F /  1.1 °C 29.9in /  1012.4hPa South 2mph /  3.2km/h   15% 0.000in /  0mm 47.00 W/m2
18:09 87.0 °F /  30.6 °C 32.0 °F /  0 °C 29.9in /  1012.4hPa SSW 4mph /  6.4km/h 2mph /  3.2km/h 14% 0.000in /  0mm 44.00 W/m2
18:14 86.0 °F /  30 °C 35.0 °F /  1.7 °C 29.9in /  1012.4hPa SSW 2mph /  3.2km/h 3mph /  4.8km/h 16% 0.000in /  0mm 40.00 W/m2
18:19 86.0 °F /  30 °C 36.0 °F /  2.2 °C 29.9in /  1012.4hPa Calm   2mph /  3.2km/h 17% 0.000in /  0mm 37.00 W/m2
18:23 86.0 °F /  30 °C 34.0 °F /  1.1 °C 29.9in /  1012.4hPa WSW 2mph /  3.2km/h 1mph /  1.6km/h 16% 0.000in /  0mm 33.00 W/m2
18:29 85.0 °F /  29.4 °C 34.0 °F /  1.1 °C 29.9in /  1012.4hPa SE 4mph /  6.4km/h 3mph /  4.8km/h 16% 0.000in /  0mm 32.00 W/m2
18:34 85.0 °F /  29.4 °C 36.0 °F /  2.2 °C 29.9in /  1012.4hPa SSE 2mph /  3.2km/h 3mph /  4.8km/h 18% 0.000in /  0mm 30.00 W/m2
18:39 84.0 °F /  28.9 °C 36.0 °F /  2.2 °C 29.9in /  1012.4hPa SSE 2mph /  3.2km/h 2mph /  3.2km/h 18% 0.000in /  0mm 28.00 W/m2
18:44 84.0 °F /  28.9 °C 36.0 °F /  2.2 °C 29.9in /  1012.4hPa SW 4mph /  6.4km/h 2mph /  3.2km/h 18% 0.000in /  0mm 32.00 W/m2
18:49 84.0 °F /  28.9 °C 41.0 °F /  5 °C 29.9in /  1012.4hPa Calm   3mph /  4.8km/h 22% 0.000in /  0mm 33.00 W/m2
18:54 84.0 °F /  28.9 °C 41.0 °F /  5 °C 29.9in /  1012.4hPa Calm     22% 0.000in /  0mm 30.00 W/m2
18:59 83.0 °F /  28.3 °C 40.0 °F /  4.4 °C 29.9in /  1012.4hPa Calm     22% 0.000in /  0mm 21.00 W/m2
19:04 83.0 °F /  28.3 °C 35.0 °F /  1.7 °C 29.9in /  1012.4hPa Calm     18% 0.000in /  0mm 19.00 W/m2
19:09 83.0 °F /  28.3 °C 36.0 °F /  2.2 °C 29.9in /  1012.4hPa Calm     19% 0.000in /  0mm 18.00 W/m2
19:14 82.0 °F /  27.8 °C 38.0 °F /  3.3 °C 29.9in /  1012.4hPa Calm     21% 0.000in /  0mm 16.00 W/m2
19:19 82.0 °F /  27.8 °C 37.0 °F /  2.8 °C 29.9in /  1012.4hPa Calm     20% 0.000in /  0mm 14.00 W/m2
19:24 81.0 °F /  27.2 °C 37.0 °F /  2.8 °C 29.9in /  1012.4hPa Calm     21% 0.000in /  0mm 14.00 W/m2
19:29 80.0 °F /  26.7 °C 36.0 °F /  2.2 °C 29.9in /  1012.4hPa Calm     20% 0.000in /  0mm 12.00 W/m2
19:34 80.0 °F /  26.7 °C 38.0 °F /  3.3 °C 29.9in /  1012.4hPa Calm     23% 0.000in /  0mm 12.00 W/m2
19:39 79.0 °F /  26.1 °C 39.0 °F /  3.9 °C 29.9in /  1012.4hPa Calm     24% 0.000in /  0mm 11.00 W/m2
19:44 78.0 °F /  25.6 °C 38.0 °F /  3.3 °C 29.9in /  1012.4hPa Calm     25% 0.000in /  0mm 9.00 W/m2
19:49 77.0 °F /  25 °C 38.0 °F /  3.3 °C 30.0in /  1015.8hPa Calm     25% 0.000in /  0mm 9.00 W/m2
19:54 76.0 °F /  24.4 °C 38.0 °F /  3.3 °C 30.0in /  1015.8hPa Calm     26% 0.000in /  0mm 7.00 W/m2
19:59 75.0 °F /  23.9 °C 38.0 °F /  3.3 °C 30.0in /  1015.8hPa Calm     26% 0.000in /  0mm 5.00 W/m2
20:04 75.0 °F /  23.9 °C 37.0 °F /  2.8 °C 30.0in /  1015.8hPa Calm     26% 0.000in /  0mm 0.00 W/m2
20:09 74.0 °F /  23.3 °C 38.0 °F /  3.3 °C 29.9in /  1012.4hPa Calm     27% 0.000in /  0mm 0.00 W/m2
20:13 74.0 °F /  23.3 °C 36.0 °F /  2.2 °C 29.9in /  1012.4hPa Calm     25% 0.000in /  0mm 0.00 W/m2
20:19 73.0 °F /  22.8 °C 36.0 °F /  2.2 °C 30.0in /  1015.8hPa Calm     26% 0.000in /  0mm 0.00 W/m2
20:24 73.0 °F /  22.8 °C 36.0 °F /  2.2 °C 30.0in /  1015.8hPa Calm     26% 0.000in /  0mm 0.00 W/m2
20:29 72.0 °F /  22.2 °C 36.0 °F /  2.2 °C 30.0in /  1015.8hPa Calm     27% 0.000in /  0mm 0.00 W/m2
20:34 72.0 °F /  22.2 °C 36.0 °F /  2.2 °C 30.0in /  1015.8hPa Calm     27% 0.000in /  0mm 0.00 W/m2
20:39 71.0 °F /  21.7 °C 36.0 °F /  2.2 °C 30.0in /  1015.8hPa Calm     28% 0.000in /  0mm 0.00 W/m2
20:44 71.0 °F /  21.7 °C 36.0 °F /  2.2 °C 30.0in /  1015.8hPa Calm     28% 0.000in /  0mm 0.00 W/m2
20:49 71.0 °F /  21.7 °C 35.0 °F /  1.7 °C 30.0in /  1015.8hPa Calm     27% 0.000in /  0mm 0.00 W/m2
20:54 70.0 °F /  21.1 °C 35.0 °F /  1.7 °C 30.0in /  1015.8hPa Calm     27% 0.000in /  0mm 0.00 W/m2
20:59 70.0 °F /  21.1 °C 35.0 °F /  1.7 °C 30.0in /  1015.8hPa Calm     27% 0.000in /  0mm 0.00 W/m2
21:04 70.0 °F /  21.1 °C 34.0 °F /  1.1 °C 30.0in /  1015.8hPa Calm     27% 0.000in /  0mm 0.00 W/m2
21:09 70.0 °F /  21.1 °C 34.0 °F /  1.1 °C 30.0in /  1015.8hPa Calm     27% 0.000in /  0mm 0.00 W/m2
21:14 69.0 °F /  20.6 °C 33.0 °F /  0.6 °C 30.0in /  1015.8hPa Calm     26% 0.000in /  0mm 0.00 W/m2
21:19 69.0 °F /  20.6 °C 33.0 °F /  0.6 °C 30.0in /  1015.8hPa Calm     27% 0.000in /  0mm 0.00 W/m2
21:24 69.0 °F /  20.6 °C 35.0 °F /  1.7 °C 30.0in /  1015.8hPa Calm     29% 0.000in /  0mm 0.00 W/m2
21:29 68.0 °F /  20 °C 36.0 °F /  2.2 °C 30.0in /  1015.8hPa Calm     30% 0.000in /  0mm 0.00 W/m2
21:34 68.0 °F /  20 °C 36.0 °F /  2.2 °C 30.0in /  1015.8hPa Calm     31% 0.000in /  0mm 0.00 W/m2
21:39 68.0 °F /  20 °C 36.0 °F /  2.2 °C 30.0in /  1015.8hPa Calm     31% 0.000in /  0mm 0.00 W/m2
21:44 68.0 °F /  20 °C 36.0 °F /  2.2 °C 30.0in /  1015.8hPa Calm     31% 0.000in /  0mm 0.00 W/m2
21:49 67.0 °F /  19.4 °C 36.0 °F /  2.2 °C 30.0in /  1015.8hPa Calm     31% 0.000in /  0mm 0.00 W/m2
21:54 67.0 °F /  19.4 °C 37.0 °F /  2.8 °C 30.0in /  1015.8hPa Calm     33% 0.000in /  0mm 0.00 W/m2
21:59 67.0 °F /  19.4 °C 37.0 °F /  2.8 °C 30.0in /  1015.8hPa Calm     33% 0.000in /  0mm 0.00 W/m2
22:04 67.0 °F /  19.4 °C 37.0 °F /  2.8 °C 30.0in /  1015.8hPa Calm     34% 0.000in /  0mm 0.00 W/m2
22:09 66.0 °F /  18.9 °C 37.0 °F /  2.8 °C 30.0in /  1015.8hPa Calm     34% 0.000in /  0mm 0.00 W/m2
22:14 66.0 °F /  18.9 °C 37.0 °F /  2.8 °C 30.0in /  1015.8hPa Calm     34% 0.000in /  0mm 0.00 W/m2
22:19 66.0 °F /  18.9 °C 37.0 °F /  2.8 °C 30.0in /  1015.8hPa Calm     34% 0.000in /  0mm 0.00 W/m2
22:24 66.0 °F /  18.9 °C 37.0 °F /  2.8 °C 30.0in /  1015.8hPa Calm     34% 0.000in /  0mm 0.00 W/m2
22:29 65.0 °F /  18.3 °C 40.0 °F /  4.4 °C 30.0in /  1015.8hPa Calm     40% 0.000in /  0mm 0.00 W/m2
22:34 65.0 °F /  18.3 °C 39.0 °F /  3.9 °C 30.0in /  1015.8hPa Calm     38% 0.000in /  0mm 0.00 W/m2
22:39 65.0 °F /  18.3 °C 38.0 °F /  3.3 °C 30.0in /  1015.8hPa Calm     38% 0.000in /  0mm 0.00 W/m2
22:44 64.0 °F /  17.8 °C 39.0 °F /  3.9 °C 30.0in /  1015.8hPa Calm     39% 0.000in /  0mm 0.00 W/m2
22:49 64.0 °F /  17.8 °C 38.0 °F /  3.3 °C 30.0in /  1015.8hPa Calm     38% 0.000in /  0mm 0.00 W/m2
22:54 64.0 °F /  17.8 °C 38.0 °F /  3.3 °C 30.0in /  1015.8hPa Calm     38% 0.000in /  0mm 0.00 W/m2
22:59 64.0 °F /  17.8 °C 36.0 °F /  2.2 °C 30.0in /  1015.8hPa Calm     36% 0.000in /  0mm 0.00 W/m2
23:04 63.0 °F /  17.2 °C 35.0 °F /  1.7 °C 30.0in /  1015.8hPa Calm     35% 0.000in /  0mm 0.00 W/m2
23:09 63.0 °F /  17.2 °C 36.0 °F /  2.2 °C 30.0in /  1015.8hPa Calm     37% 0.000in /  0mm 0.00 W/m2
23:14 63.0 °F /  17.2 °C 36.0 °F /  2.2 °C 30.0in /  1015.8hPa Calm     36% 0.000in /  0mm 0.00 W/m2
23:19 63.0 °F /  17.2 °C 35.0 °F /  1.7 °C 30.0in /  1015.8hPa Calm     36% 0.000in /  0mm 0.00 W/m2
23:24 63.0 °F /  17.2 °C 35.0 °F /  1.7 °C 30.0in /  1015.8hPa Calm     36% 0.000in /  0mm 0.00 W/m2
23:29 62.0 °F /  16.7 °C 35.0 °F /  1.7 °C 30.0in /  1015.8hPa Calm     36% 0.000in /  0mm 0.00 W/m2
23:34 62.0 °F /  16.7 °C 36.0 °F /  2.2 °C 30.0in /  1015.8hPa Calm     37% 0.000in /  0mm 0.00 W/m2
23:39 62.0 °F /  16.7 °C 35.0 °F /  1.7 °C 30.0in /  1015.8hPa Calm     37% 0.000in /  0mm 0.00 W/m2
23:44 62.0 °F /  16.7 °C 35.0 °F /  1.7 °C 30.0in /  1015.8hPa Calm     37% 0.000in /  0mm 0.00 W/m2
23:49 62.0 °F /  16.7 °C 35.0 °F /  1.7 °C 30.0in /  1015.8hPa Calm     37% 0.000in /  0mm 0.00 W/m2
23:54 62.0 °F /  16.7 °C 35.0 °F /  1.7 °C 30.0in /  1015.8hPa Calm     37% 0.000in /  0mm 0.00 W/m2
23:59 62.0 °F /  16.7 °C 36.0 °F /  2.2 °C 30.0in /  1015.8hPa Calm     38% 0.000in /  0mm 0.00 W/m2
El Dorado Weather
Compliments of Weather Underground - 2 mb